Time;durP1;ratioP1;P1;durP2;ratioP2;P2;SDS_P1;SDS_P2;PMS_P1;PMS_P2;Temp;Humidity;BMP_temperature;BMP_pressure;BME280_temperature;BME280_humidity;BME280_pressure;Samples;Min_cycle;Max_cycle;Signal;HPM_P1;HPM_P2
2020/12/17 00:02:01;;;;;;;59.77;36.95;;;;;;;1.71;74.44;102210.59;1736557;79;21240;-83
2020/12/17 00:04:29;;;;;;;63.98;36.68;;;;;;;1.72;74.33;102208.45;1741874;80;20977;-83
2020/12/17 00:06:57;;;;;;;61.92;36.98;;;;;;;1.74;74.33;102204.16;1740849;81;21016;-82
2020/12/17 00:09:25;;;;;;;64.82;37.08;;;;;;;1.73;74.45;102206.28;1738897;81;21012;-83
2020/12/17 00:11:56;;;;;;;63.40;38.10;;;;;;;1.74;74.44;102209.33;1741099;81;21064;-84
2020/12/17 00:14:24;;;;;;;67.87;38.98;;;;;;;1.74;74.40;102210.61;1738275;81;21450;-84
2020/12/17 00:16:53;;;;;;;56.33;34.90;;;;;;;1.72;74.37;102213.19;1734967;81;21116;-84
2020/12/17 00:19:21;;;;;;;60.90;35.08;;;;;;;1.71;74.39;102216.62;1727278;81;21389;-85
2020/12/17 00:21:55;;;;;;;61.23;35.63;;;;;;;1.74;74.33;102218.38;1735453;81;20894;-86
2020/12/17 00:24:23;;;;;;;74.55;44.48;;;;;;;1.73;74.27;102215.34;1741020;79;21424;-85
2020/12/17 00:26:51;;;;;;;78.90;43.08;;;;;;;1.69;74.40;102209.72;1718762;80;20985;-85
2020/12/17 00:29:20;;;;;;;70.65;41.45;;;;;;;1.66;74.62;102208.84;1701889;82;21536;-85
2020/12/17 00:31:53;;;;;;;70.75;40.10;;;;;;;1.68;74.61;102212.74;1699324;82;20991;-84
2020/12/17 00:34:21;;;;;;;67.15;39.30;;;;;;;1.68;74.56;102212.74;1729291;82;21034;-84
2020/12/17 00:36:54;;;;;;;73.42;41.50;;;;;;;1.71;74.47;102220.93;1702151;82;21947;-84
2020/12/17 00:39:23;;;;;;;70.55;39.98;;;;;;;1.74;74.39;102222.25;1696505;82;21035;-82
2020/12/17 00:41:52;;;;;;;72.62;41.15;;;;;;;1.74;74.42;102214.05;1702470;82;21358;-83
2020/12/17 00:44:20;;;;;;;85.75;49.10;;;;;;;1.74;74.48;102213.20;1699535;82;20983;-82
2020/12/17 00:46:52;;;;;;;83.58;50.78;;;;;;;1.75;74.53;102213.63;1700513;82;20964;-84
2020/12/17 00:49:19;;;;;;;88.97;47.85;;;;;;;1.76;74.48;102214.07;1717738;81;21182;-83
2020/12/17 00:51:48;;;;;;;84.05;45.23;;;;;;;1.77;74.44;102217.93;1702848;82;20916;-81
2020/12/17 00:54:17;;;;;;;72.72;43.23;;;;;;;1.78;74.32;102217.49;1735183;81;20922;-81
2020/12/17 00:56:46;;;;;;;83.80;43.87;;;;;;;1.80;74.30;102223.53;1735285;81;21034;-82
2020/12/17 00:59:14;;;;;;;82.42;45.25;;;;;;;1.78;74.33;102222.67;1731296;81;21099;-83
2020/12/17 01:01:42;;;;;;;87.20;46.63;;;;;;;1.76;74.60;102227.86;1733291;81;21221;-85
2020/12/17 01:04:10;;;;;;;79.22;44.27;;;;;;;1.76;74.57;102222.69;1728125;81;21236;-84
2020/12/17 01:06:38;;;;;;;75.75;44.93;;;;;;;1.73;74.57;102223.95;1736105;81;20942;-84
2020/12/17 01:09:06;;;;;;;70.92;40.73;;;;;;;1.68;74.66;102228.70;1738070;79;21072;-84
2020/12/17 01:11:35;;;;;;;71.15;38.75;;;;;;;1.66;74.69;102224.80;1735268;81;21143;-85
2020/12/17 01:14:03;;;;;;;66.70;40.48;;;;;;;1.67;74.77;102225.25;1739593;81;21185;-84
2020/12/17 01:16:31;;;;;;;67.03;39.58;;;;;;;1.68;74.99;102219.20;1739587;81;21606;-84
2020/12/17 01:18:59;;;;;;;69.60;39.33;;;;;;;1.70;75.05;102218.78;1740831;81;21415;-84
2020/12/17 01:21:28;;;;;;;73.20;40.60;;;;;;;1.74;74.97;102215.78;1766033;79;20911;-84
2020/12/17 01:23:56;;;;;;;64.42;38.70;;;;;;;1.77;74.98;102215.34;1736393;81;21060;-84
2020/12/17 01:26:24;;;;;;;54.35;34.18;;;;;;;1.78;74.92;102201.97;1737529;81;21165;-84
2020/12/17 01:28:52;;;;;;;54.70;31.25;;;;;;;1.80;74.84;102205.03;1740282;81;21016;-82
2020/12/17 01:31:22;;;;;;;52.55;31.82;;;;;;;1.82;74.68;102193.37;1730087;81;21107;-83
2020/12/17 01:33:50;;;;;;;51.13;31.35;;;;;;;1.82;74.67;102198.14;1728856;79;21175;-81
2020/12/17 01:36:25;;;;;;;42.93;26.23;;;;;;;1.81;74.68;102195.53;1778912;79;20980;-80
2020/12/17 01:38:53;;;;;;;47.30;31.07;;;;;;;1.82;74.41;102193.37;1779831;79;21147;-79
2020/12/17 01:41:22;;;;;;;48.68;29.10;;;;;;;1.82;74.48;102196.84;1751346;80;21114;-80
2020/12/17 01:43:50;;;;;;;46.45;27.32;;;;;;;1.83;74.45;102198.55;1776462;80;20971;-79
2020/12/17 01:46:18;;;;;;;40.92;26.17;;;;;;;1.81;74.31;102199.41;1775488;79;21113;-80
2020/12/17 01:48:47;;;;;;;45.60;28.15;;;;;;;1.81;74.24;102200.70;1718553;82;20981;-81
2020/12/17 01:51:14;;;;;;;44.75;24.82;;;;;;;1.78;74.23;102199.39;1712589;82;21470;-82
2020/12/17 01:53:44;;;;;;;39.35;23.92;;;;;;;1.77;74.27;102196.39;1738347;81;21020;-82
2020/12/17 01:56:24;;;;;;;45.70;27.10;;;;;;;1.75;74.14;102196.37;1726780;81;20969;-81
2020/12/17 01:59:23;;;;;;;42.88;25.02;;;;;;;1.77;74.01;102201.12;1691551;83;21396;-81
2020/12/17 02:01:59;;;;;;;38.60;23.62;;;;;;;1.77;74.01;102200.27;1751935;80;20972;-82
2020/12/17 02:04:29;;;;;;;41.98;25.17;;;;;;;1.76;73.78;102202.44;1728807;80;21180;-82
2020/12/17 02:06:57;;;;;;;46.28;26.33;;;;;;;1.76;73.56;102199.84;1757090;80;20980;-81
2020/12/17 02:09:25;;;;;;;39.88;26.02;;;;;;;1.75;73.47;102197.66;1777042;79;21058;-80
2020/12/17 02:11:55;;;;;;;36.40;23.40;;;;;;;1.72;73.67;102197.67;1756189;80;21039;-80
2020/12/17 02:14:25;;;;;;;34.15;22.15;;;;;;;1.74;73.58;102191.22;1778301;79;21013;-79
2020/12/17 02:16:53;;;;;;;41.37;23.70;;;;;;;1.77;73.33;102196.39;1754729;80;20985;-80
2020/12/17 02:19:21;;;;;;;35.08;22.98;;;;;;;1.77;73.06;102197.67;1776853;79;20960;-78
2020/12/17 02:21:49;;;;;;;33.98;21.97;;;;;;;1.73;72.98;102190.33;1778426;79;21513;-79
2020/12/17 02:24:20;;;;;;;36.53;21.87;;;;;;;1.70;72.96;102187.75;1776895;79;21528;-78
2020/12/17 02:26:49;;;;;;;39.48;23.87;;;;;;;1.70;72.88;102194.66;1784168;79;20963;-80
2020/12/17 02:29:18;;;;;;;33.30;23.27;;;;;;;1.72;72.74;102191.20;1779301;79;21107;-80
2020/12/17 02:31:47;;;;;;;37.20;25.62;;;;;;;1.71;72.62;102192.48;1779229;79;21023;-81
2020/12/17 02:34:16;;;;;;;37.08;22.93;;;;;;;1.69;72.68;102182.16;1753755;80;21027;-82
2020/12/17 02:36:44;;;;;;;40.23;24.23;;;;;;;1.72;72.74;102183.45;1774813;78;21063;-83
2020/12/17 02:39:13;;;;;;;37.73;23.80;;;;;;;1.74;72.50;102179.58;1735572;80;21583;-83
2020/12/17 02:41:40;;;;;;;35.90;24.47;;;;;;;1.76;72.26;102178.72;1725712;80;21170;-84
2020/12/17 02:44:09;;;;;;;33.08;22.22;;;;;;;1.77;72.00;102179.14;1742673;80;21111;-83
2020/12/17 02:46:37;;;;;;;35.98;23.12;;;;;;;1.78;71.79;102174.41;1726563;81;20957;-81
2020/12/17 02:49:04;;;;;;;34.80;24.00;;;;;;;1.72;71.69;102167.94;1725583;80;21065;-85
2020/12/17 02:51:33;;;;;;;35.40;23.15;;;;;;;1.69;71.79;102166.64;1693019;80;21008;-83
2020/12/17 02:54:01;;;;;;;40.90;25.60;;;;;;;1.67;71.76;102156.73;1745604;81;21205;-83
2020/12/17 02:56:29;;;;;;;49.83;28.32;;;;;;;1.66;71.47;102165.33;1743385;80;21525;-83
2020/12/17 02:58:57;;;;;;;40.20;24.95;;;;;;;1.66;71.43;102169.20;1730957;80;20964;-85
2020/12/17 03:01:27;;;;;;;39.10;25.10;;;;;;;1.62;71.31;102167.06;1728689;81;21585;-86
2020/12/17 03:03:55;;;;;;;34.05;24.18;;;;;;;1.64;71.23;102166.61;1739812;80;20994;-87
2020/12/17 03:06:23;;;;;;;45.00;27.22;;;;;;;1.61;71.07;102172.22;1743094;81;21085;-87
2020/12/17 03:08:51;;;;;;;39.42;24.87;;;;;;;1.59;71.03;102168.33;1750374;81;21470;-87
2020/12/17 03:11:20;;;;;;;41.08;26.77;;;;;;;1.59;70.99;102176.09;1736407;80;20906;-86
2020/12/17 03:13:48;;;;;;;39.70;25.68;;;;;;;1.59;70.91;102173.94;1722779;81;21096;-88
2020/12/17 03:16:18;;;;;;;40.95;27.13;;;;;;;1.58;70.86;102170.50;1747292;81;21744;-83
2020/12/17 03:18:47;;;;;;;41.75;25.70;;;;;;;1.56;70.84;102176.09;1745923;81;21612;-85
2020/12/17 03:21:17;;;;;;;38.23;26.23;;;;;;;1.56;70.90;102179.97;1748949;81;20965;-83
2020/12/17 03:23:45;;;;;;;37.30;24.63;;;;;;;1.56;71.00;102183.84;1747931;81;21048;-84
2020/12/17 03:26:13;;;;;;;40.67;24.07;;;;;;;1.55;71.17;102183.83;1751074;81;20961;-82
2020/12/17 03:28:41;;;;;;;36.60;24.47;;;;;;;1.56;71.27;102187.73;1755046;80;20945;-83
2020/12/17 03:31:09;;;;;;;36.13;25.02;;;;;;;1.57;71.32;102184.27;1746606;80;22153;-85
2020/12/17 03:33:37;;;;;;;38.33;25.60;;;;;;;1.58;71.35;102178.66;1737994;80;21390;-84
2020/12/17 03:36:06;;;;;;;40.05;26.12;;;;;;;1.55;71.30;102182.10;1736956;80;21555;-83
2020/12/17 03:38:36;;;;;;;40.17;26.48;;;;;;;1.54;71.01;102189.87;1717912;80;21029;-87
2020/12/17 03:41:04;;;;;;;40.73;26.33;;;;;;;1.51;70.50;102176.92;1733936;80;21017;-84
2020/12/17 03:43:33;;;;;;;36.40;21.07;;;;;;;1.48;70.38;102179.08;1732665;80;21109;-85
2020/12/17 03:46:01;;;;;;;29.87;22.05;;;;;;;1.48;70.34;102175.64;1726501;81;20994;-85
2020/12/17 03:48:30;;;;;;;40.88;23.70;;;;;;;1.47;70.49;102182.94;1730022;80;21100;-84
2020/12/17 03:50:58;;;;;;;28.17;19.42;;;;;;;1.47;70.54;102196.75;1741598;80;20994;-84
2020/12/17 03:53:26;;;;;;;28.65;19.02;;;;;;;1.50;70.51;102194.16;1730578;81;21069;-85
2020/12/17 03:55:54;;;;;;;26.60;18.52;;;;;;;1.51;70.61;102191.14;1726366;80;22806;-86
2020/12/17 03:58:22;;;;;;;25.25;19.10;;;;;;;1.51;70.42;102193.29;1718208;80;20934;-86
2020/12/17 04:00:51;;;;;;;35.33;23.45;;;;;;;1.49;70.51;102196.33;1729294;80;21009;-83
2020/12/17 04:03:19;;;;;;;27.75;20.10;;;;;;;1.51;70.72;102197.61;1721856;80;20934;-84
2020/12/17 04:05:47;;;;;;;26.02;17.48;;;;;;;1.49;70.76;102193.75;1730930;81;21511;-85
2020/12/17 04:08:16;;;;;;;24.87;18.27;;;;;;;1.50;70.60;102188.99;1728218;81;21000;-84
2020/12/17 04:10:44;;;;;;;32.58;21.12;;;;;;;1.46;70.65;102193.72;1742762;80;20957;-83
2020/12/17 04:13:13;;;;;;;52.50;29.10;;;;;;;1.44;70.74;102193.70;1725259;80;21008;-83
2020/12/17 04:15:41;;;;;;;49.58;28.73;;;;;;;1.43;70.75;102193.72;1732826;80;21040;-86
2020/12/17 04:18:08;;;;;;;50.98;27.73;;;;;;;1.42;70.57;102195.85;1727648;80;21106;-86
2020/12/17 04:20:37;;;;;;;46.20;27.45;;;;;;;1.41;70.62;102193.70;1719145;80;21077;-86
2020/12/17 04:23:05;;;;;;;44.60;28.05;;;;;;;1.41;70.60;102198.02;1723844;80;21024;-84
2020/12/17 04:25:33;;;;;;;51.08;28.32;;;;;;;1.42;70.62;102198.03;1733215;80;21049;-85
2020/12/17 04:28:01;;;;;;;46.42;28.40;;;;;;;1.42;70.62;102204.49;1736859;80;21510;-86
2020/12/17 04:30:29;;;;;;;50.70;29.25;;;;;;;1.40;70.68;102210.48;1746360;81;20993;-87
2020/12/17 04:32:57;;;;;;;53.00;30.65;;;;;;;1.39;70.86;102216.09;1749308;80;21158;-86
2020/12/17 04:35:26;;;;;;;61.00;36.10;;;;;;;1.38;70.92;102219.55;1751041;80;21024;-86
2020/12/17 04:37:54;;;;;;;67.45;36.20;;;;;;;1.32;70.82;102219.95;1748328;81;20949;-88
2020/12/17 04:40:22;;;;;;;68.05;36.10;;;;;;;1.28;70.85;102227.25;1731808;80;21472;-87
2020/12/17 04:42:50;;;;;;;64.95;35.48;;;;;;;1.23;71.09;102230.67;1748611;77;21335;-83
2020/12/17 04:45:21;;;;;;;75.60;39.67;;;;;;;1.22;71.21;102231.55;1730489;81;22741;-83
2020/12/17 04:47:49;;;;;;;80.17;44.63;;;;;;;1.23;71.17;102237.14;1730709;80;21016;-82
2020/12/17 04:50:17;;;;;;;78.67;43.85;;;;;;;1.21;71.15;102220.77;1735546;80;21001;-82
2020/12/17 04:52:45;;;;;;;82.05;43.08;;;;;;;1.22;71.10;102226.37;1737139;80;21083;-82
2020/12/17 04:55:15;;;;;;;86.57;46.65;;;;;;;1.23;71.24;102229.82;1714884;80;21085;-84
2020/12/17 04:57:45;;;;;;;77.10;40.17;;;;;;;1.25;71.19;102230.70;1743456;80;21025;-82
2020/12/17 05:00:14;;;;;;;82.17;42.35;;;;;;;1.27;71.13;102233.27;1731931;80;20990;-81
2020/12/17 05:02:45;;;;;;;69.95;40.40;;;;;;;1.29;71.01;102231.55;1742835;81;20953;-79
2020/12/17 05:05:15;;;;;;;77.22;41.10;;;;;;;1.29;71.05;102235.02;1728656;81;20934;-82
2020/12/17 05:07:43;;;;;;;80.97;42.73;;;;;;;1.29;71.07;102225.09;1731961;80;21546;-80
2020/12/17 05:10:11;;;;;;;71.07;39.03;;;;;;;1.30;71.09;102228.98;1731458;80;21457;-81
2020/12/17 05:12:40;;;;;;;59.65;32.53;;;;;;;1.30;71.08;102229.42;1728659;81;21091;-80
2020/12/17 05:15:10;;;;;;;65.05;34.40;;;;;;;1.27;70.97;102230.27;1743352;80;21455;-80
2020/12/17 05:17:38;;;;;;;59.30;33.58;;;;;;;1.25;71.06;102225.53;1728264;81;21017;-82
2020/12/17 05:20:09;;;;;;;67.45;35.33;;;;;;;1.27;71.05;102236.73;1739151;80;21088;-80
2020/12/17 05:22:41;;;;;;;60.67;32.48;;;;;;;1.29;71.04;102236.72;1743398;80;21838;-84
2020/12/17 05:25:09;;;;;;;59.25;32.70;;;;;;;1.29;71.10;102232.84;1722102;80;21024;-77
2020/12/17 05:27:41;;;;;;;45.30;27.27;;;;;;;1.28;71.03;102225.53;1714233;80;21029;-79
2020/12/17 05:30:09;;;;;;;49.83;29.07;;;;;;;1.27;71.03;102232.86;1721638;81;21072;-75
2020/12/17 05:32:41;;;;;;;40.23;26.25;;;;;;;1.28;71.14;102233.72;1728537;81;21032;-74
2020/12/17 05:36:09;;;;;;;41.65;26.55;;;;;;;1.33;71.06;102233.30;1816046;79;22621;-76
2020/12/17 05:38:36;;;;;;;42.80;24.80;;;;;;;1.28;71.09;102231.98;1758643;80;21017;-75
2020/12/17 05:41:06;;;;;;;42.17;24.67;;;;;;;1.28;71.14;102232.42;1758783;80;21630;-79
2020/12/17 05:43:36;;;;;;;46.42;24.10;;;;;;;1.28;71.23;102237.16;1758748;80;21047;-75
2020/12/17 05:46:04;;;;;;;31.52;20.68;;;;;;;1.27;71.31;102228.98;1738192;78;21172;-74
2020/12/17 05:48:32;;;;;;;29.45;21.70;;;;;;;1.23;71.20;102219.48;1610228;88;20958;-73
2020/12/17 05:51:05;;;;;;;35.92;21.07;;;;;;;1.19;71.24;102211.28;1626490;86;21097;-74
2020/12/17 05:53:36;;;;;;;28.20;20.08;;;;;;;1.17;71.26;102203.95;1626483;87;21229;-73
2020/12/17 05:56:08;;;;;;;31.52;21.87;;;;;;;1.15;71.19;102213.41;1626586;87;21049;-73
2020/12/17 05:58:42;;;;;;;31.85;22.98;;;;;;;1.13;71.33;102217.70;1647639;84;21013;-74
2020/12/17 06:01:15;;;;;;;37.75;24.05;;;;;;;1.13;71.38;102220.28;1626739;87;20982;-73
2020/12/17 06:03:43;;;;;;;41.83;28.50;;;;;;;1.11;71.36;102230.63;1626777;86;21023;-75
2020/12/17 06:06:12;;;;;;;38.90;28.10;;;;;;;1.12;71.41;102233.64;1605837;87;21467;-78
2020/12/17 06:08:41;;;;;;;39.70;28.17;;;;;;;1.13;71.39;102240.95;1626380;87;21014;-77
2020/12/17 06:11:10;;;;;;;38.45;26.35;;;;;;;1.12;71.32;102241.39;1626381;86;20986;-78
2020/12/17 06:13:42;;;;;;;38.38;26.10;;;;;;;1.11;71.31;102237.50;1626387;87;21107;-76
2020/12/17 06:16:11;;;;;;;38.35;27.67;;;;;;;1.08;71.35;102248.68;1626585;87;20974;-75
2020/12/17 06:18:58;;;;;;;40.43;27.82;;;;;;;1.09;71.37;102252.12;1626237;87;21122;-76
2020/12/17 06:21:27;;;;;;;41.88;29.52;;;;;;;1.11;71.41;102251.30;1626085;87;21053;-77
2020/12/17 06:23:56;;;;;;;33.00;25.08;;;;;;;1.10;71.39;102245.68;1626346;87;21038;-78
2020/12/17 06:26:24;;;;;;;35.55;23.60;;;;;;;1.09;71.23;102245.66;1626319;87;20991;-79
2020/12/17 06:28:53;;;;;;;40.63;29.48;;;;;;;1.07;71.11;102237.03;1626527;85;20986;-79
2020/12/17 06:31:26;;;;;;;43.90;34.85;;;;;;;1.06;70.97;102235.33;1626595;87;21192;-79
2020/12/17 06:34:03;;;;;;;42.73;32.38;;;;;;;1.04;71.02;102236.59;1626399;87;21003;-77
2020/12/17 06:36:43;;;;;;;28.98;20.75;;;;;;;1.02;71.11;102230.16;1647241;85;21010;-77
2020/12/17 06:39:11;;;;;;;30.30;22.30;;;;;;;0.99;71.10;102230.12;1626586;87;20994;-80
2020/12/17 06:41:39;;;;;;;28.45;23.83;;;;;;;0.95;71.23;102226.22;1626702;87;21035;-79
2020/12/17 06:44:30;;;;;;;24.32;21.73;;;;;;;0.93;71.38;102227.92;1626513;87;21080;-79
2020/12/17 06:47:02;;;;;;;31.30;23.42;;;;;;;0.94;71.31;102243.87;1621742;86;21657;-77
2020/12/17 06:49:31;;;;;;;27.82;22.50;;;;;;;0.92;71.23;102243.00;1637503;81;21084;-85
2020/12/17 06:52:08;;;;;;;27.77;22.05;;;;;;;0.92;71.31;102241.70;1724536;81;20913;-83
2020/12/17 06:54:43;;;;;;;24.67;20.95;;;;;;;0.91;71.39;102245.12;1724558;81;21013;-83
2020/12/17 06:57:18;;;;;;;20.15;16.57;;;;;;;0.92;71.38;102246.44;1724757;81;21486;-86
2020/12/17 07:00:08;;;;;;;22.20;18.23;;;;;;;0.94;71.21;102243.87;1754521;81;21123;-85
2020/12/17 07:02:42;;;;;;;36.42;25.92;;;;;;;0.96;71.26;102244.31;1724974;81;20886;-85
2020/12/17 07:05:35;;;;;;;26.75;20.30;;;;;;;0.97;71.30;102254.22;1724838;81;21522;-83
2020/12/17 07:08:07;;;;;;;29.37;20.45;;;;;;;1.01;71.25;102257.26;1724602;81;21443;-85
2020/12/17 07:10:40;;;;;;;26.20;19.75;;;;;;;1.04;71.29;102258.55;1722070;81;21731;-86
2020/12/17 07:13:10;;;;;;;35.92;21.70;;;;;;;1.08;71.22;102271.08;1724358;81;21065;-84
2020/12/17 07:15:44;;;;;;;38.55;20.48;;;;;;;1.10;71.22;102270.22;1754081;81;20977;-85
2020/12/17 07:18:20;;;;;;;33.50;20.55;;;;;;;1.11;71.10;102269.79;1724513;81;21000;-87
2020/12/17 07:21:02;;;;;;;30.72;19.85;;;;;;;1.11;71.15;102271.08;1724545;81;20989;-89
2020/12/17 07:23:38;;;;;;;27.58;19.30;;;;;;;1.15;71.22;102281.88;1724500;81;21182;-84
2020/12/17 07:26:14;;;;;;;27.32;17.42;;;;;;;1.14;71.38;102276.28;1724367;81;21391;-84
2020/12/17 07:28:45;;;;;;;25.92;18.60;;;;;;;1.17;71.41;102286.19;1724431;81;21573;-83
2020/12/17 07:31:23;;;;;;;27.85;18.92;;;;;;;1.16;71.39;102292.23;1700913;81;20993;-86
2020/12/17 07:33:51;;;;;;;24.60;18.67;;;;;;;1.17;71.37;102293.09;1725864;81;21029;-86
2020/12/17 07:36:39;;;;;;;29.27;19.40;;;;;;;1.17;71.27;102287.92;1727035;81;21059;-83
2020/12/17 07:39:08;;;;;;;32.45;21.07;;;;;;;1.17;71.33;102291.80;1726243;81;20957;-84
2020/12/17 07:41:36;;;;;;;29.27;19.05;;;;;;;1.13;71.27;102293.48;1724377;81;20921;-84
2020/12/17 07:44:06;;;;;;;37.38;22.10;;;;;;;1.10;71.39;102293.48;1724324;81;20949;-85
2020/12/17 07:46:39;;;;;;;39.38;24.05;;;;;;;1.08;71.57;102292.59;1725307;81;21009;-85
2020/12/17 07:49:28;;;;;;;33.15;21.05;;;;;;;1.11;71.62;102291.75;1725451;81;20922;-82
2020/12/17 07:52:08;;;;;;;33.92;21.48;;;;;;;1.12;71.75;102294.35;1725076;81;20965;-81
2020/12/17 07:54:36;;;;;;;34.60;20.32;;;;;;;1.17;71.91;102293.94;1641403;87;21007;-79
2020/12/17 07:57:10;;;;;;;31.77;21.42;;;;;;;1.24;71.96;102292.26;1599117;87;21009;-80
2020/12/17 07:59:44;;;;;;;34.53;23.20;;;;;;;1.28;71.85;102294.45;1645734;87;21490;-80
2020/12/17 08:02:14;;;;;;;33.40;21.52;;;;;;;1.31;71.78;102294.45;1639281;87;21116;-79
2020/12/17 08:04:53;;;;;;;35.43;23.07;;;;;;;1.36;71.68;102298.80;1615962;87;21002;-80
2020/12/17 08:07:27;;;;;;;36.73;24.70;;;;;;;1.43;71.54;102295.38;1635845;87;21049;-81
2020/12/17 08:10:01;;;;;;;31.05;19.80;;;;;;;1.48;71.38;102289.38;1644815;87;21065;-84
2020/12/17 08:12:33;;;;;;;43.48;26.62;;;;;;;1.50;71.22;102290.25;1639018;87;21009;-87
2020/12/17 08:15:09;;;;;;;41.88;25.95;;;;;;;1.52;71.21;102291.98;1596116;87;22340;-84
2020/12/17 08:17:46;;;;;;;46.90;28.40;;;;;;;1.53;71.12;102296.72;1638927;87;21658;-84
2020/12/17 08:20:25;;;;;;;48.68;29.65;;;;;;;1.55;71.11;102293.27;1637938;87;21074;-81
2020/12/17 08:23:20;;;;;;;44.23;27.37;;;;;;;1.57;71.04;102295.44;1638442;87;21058;-86
2020/12/17 08:25:49;;;;;;;39.38;25.10;;;;;;;1.59;71.00;102287.70;1638385;87;20998;-86
2020/12/17 08:28:22;;;;;;;43.30;26.20;;;;;;;1.60;70.94;102282.95;1637729;87;22006;-85
2020/12/17 08:31:08;;;;;;;43.40;26.25;;;;;;;1.62;70.93;102292.47;1638118;86;21041;-83
2020/12/17 08:33:43;;;;;;;40.55;26.42;;;;;;;1.64;70.92;102286.84;1638270;87;21049;-85
2020/12/17 08:36:14;;;;;;;;;;;;;;;1.67;70.95;102286.02;1641170;87;20958;-83
2020/12/17 08:38:43;;;;;;;40.90;23.85;;;;;;;1.69;70.89;102283.42;1638235;86;20130;-84
2020/12/17 08:41:13;;;;;;;47.50;27.20;;;;;;;1.72;70.80;102287.33;1615710;87;21013;-81
2020/12/17 08:43:46;;;;;;;50.15;29.32;;;;;;;1.75;70.92;102289.91;1595569;87;21005;-82
2020/12/17 08:46:15;;;;;;;54.15;29.90;;;;;;;1.77;70.91;102284.31;1635253;87;21424;-82
2020/12/17 08:48:45;;;;;;;51.75;31.10;;;;;;;1.79;70.88;102279.58;1638226;87;20998;-83
2020/12/17 08:51:17;;;;;;;62.48;31.87;;;;;;;1.85;70.76;102281.34;1638419;87;20951;-82
2020/12/17 08:53:45;;;;;;;60.33;33.50;;;;;;;1.87;70.97;102280.91;1638378;86;21892;-85
2020/12/17 08:56:23;;;;;;;56.08;34.48;;;;;;;1.92;70.76;102283.52;1638350;87;21130;-77
2020/12/17 08:58:57;;;;;;;58.85;33.85;;;;;;;1.92;70.63;102281.78;1638431;87;21014;-77
2020/12/17 09:01:32;;;;;;;58.68;32.95;;;;;;;1.96;70.57;102278.78;1609147;88;21546;-77
2020/12/17 09:04:06;;;;;;;55.08;32.95;;;;;;;2.02;70.93;102286.53;1608877;88;21000;-78
2020/12/17 09:06:37;;;;;;;51.65;33.38;;;;;;;2.05;70.93;102284.83;1638336;87;21729;-76
2020/12/17 09:09:24;;;;;;;63.52;34.75;;;;;;;2.08;71.13;102285.27;1638292;87;21618;-78
2020/12/17 09:11:55;;;;;;;52.53;32.25;;;;;;;2.10;71.14;102295.63;1638231;87;21005;-77
2020/12/17 09:14:35;;;;;;;45.58;28.12;;;;;;;2.13;71.00;102290.01;1638253;87;21065;-77
2020/12/17 09:17:17;;;;;;;45.17;28.60;;;;;;;2.14;70.87;102295.64;1638241;87;21006;-79
2020/12/17 09:19:46;;;;;;;47.78;27.32;;;;;;;2.07;70.90;102288.29;1638335;86;22071;-75
2020/12/17 09:22:19;;;;;;;42.93;25.88;;;;;;;1.97;71.34;102289.11;1638204;87;21011;-80
2020/12/17 09:24:48;;;;;;;40.35;24.70;;;;;;;1.93;71.60;102284.79;1638407;87;21594;-76
2020/12/17 09:27:20;;;;;;;38.58;22.13;;;;;;;1.89;71.99;102297.71;1638483;87;21129;-73
2020/12/17 09:30:17;;;;;;;39.65;23.32;;;;;;;1.88;72.31;102296.86;1639094;86;21062;-79
2020/12/17 09:32:59;;;;;;;35.03;21.02;;;;;;;1.89;72.42;102289.55;1616523;87;21093;-78
2020/12/17 09:35:35;;;;;;;40.45;23.25;;;;;;;1.88;72.51;102292.97;1638199;87;21005;-77
2020/12/17 09:38:06;;;;;;;37.33;22.05;;;;;;;1.86;72.71;102290.38;1638209;87;21014;-77
2020/12/17 09:40:38;;;;;;;37.80;22.67;;;;;;;1.88;72.85;102290.83;1616248;87;21104;-78
2020/12/17 09:43:15;;;;;;;36.83;22.00;;;;;;;1.91;72.87;102282.62;1638178;87;21101;-77
2020/12/17 09:45:45;;;;;;;51.92;30.05;;;;;;;1.96;72.93;102278.34;1638349;87;22158;-75
2020/12/17 09:48:23;;;;;;;55.12;31.20;;;;;;;1.99;72.74;102275.75;1638187;87;21551;-75
2020/12/17 09:51:01;;;;;;;47.27;28.52;;;;;;;2.00;72.65;102265.86;1638142;87;20973;-76
2020/12/17 09:53:35;;;;;;;42.40;26.27;;;;;;;2.03;72.51;102269.73;1638004;86;21070;-81
2020/12/17 09:56:06;;;;;;;41.37;22.70;;;;;;;2.02;72.77;102264.55;1637990;87;20954;-80
2020/12/17 09:58:38;;;;;;;48.78;27.85;;;;;;;2.08;72.61;102265.42;1619310;81;21621;-76
2020/12/17 10:01:06;;;;;;;46.45;25.40;;;;;;;2.15;72.70;102262.84;1714501;83;21594;-78
2020/12/17 10:03:34;;;;;;;45.25;27.15;;;;;;;2.15;72.41;102257.67;1654948;85;20989;-76
2020/12/17 10:06:02;;;;;;;41.37;24.50;;;;;;;2.16;72.47;102251.66;1655023;85;21406;-75
2020/12/17 10:08:30;;;;;;;49.80;33.53;;;;;;;2.21;72.48;102250.78;1655015;85;20993;-82
2020/12/17 10:10:59;;;;;;;56.20;33.18;;;;;;;2.28;72.29;102251.65;1655641;85;21096;-83
2020/12/17 10:13:28;;;;;;;76.40;43.70;;;;;;;2.30;72.05;102250.37;1654806;85;20961;-78
2020/12/17 10:15:57;;;;;;;56.25;31.33;;;;;;;2.26;72.06;102249.05;1654962;85;20993;-77
2020/12/17 10:18:25;;;;;;;38.95;23.10;;;;;;;2.30;72.04;102256.40;1654805;85;21068;-77
2020/12/17 10:20:53;;;;;;;35.03;22.30;;;;;;;2.36;71.79;102250.37;1655170;85;21419;-77
2020/12/17 10:23:21;;;;;;;34.30;23.27;;;;;;;2.36;71.51;102240.88;1655175;85;21442;-79
2020/12/17 10:25:49;;;;;;;37.25;22.00;;;;;;;2.36;71.62;102240.88;1655064;85;21561;-77
2020/12/17 10:28:17;;;;;;;35.92;21.55;;;;;;;2.37;71.34;102245.61;1655109;85;20997;-77
2020/12/17 10:30:46;;;;;;;31.80;19.55;;;;;;;2.40;71.12;102247.79;1655214;85;21044;-77
2020/12/17 10:33:15;;;;;;;29.15;18.00;;;;;;;2.41;71.44;102251.23;1655078;85;21596;-77
2020/12/17 10:35:43;;;;;;;25.27;14.95;;;;;;;2.45;71.30;102246.48;1655147;85;21261;-76
2020/12/17 10:38:12;;;;;;;25.82;15.15;;;;;;;2.46;70.98;102245.17;1655180;85;21087;-77
2020/12/17 10:40:40;;;;;;;32.67;17.52;;;;;;;2.47;70.62;102246.92;1655079;85;21064;-76
2020/12/17 10:43:08;;;;;;;35.60;21.02;;;;;;;2.46;70.55;102242.58;1656333;85;20981;-85
2020/12/17 10:45:39;;;;;;;42.10;25.55;;;;;;;2.43;71.01;102237.42;1655401;85;21061;-88
2020/12/17 10:48:07;;;;;;;41.50;23.00;;;;;;;2.45;71.22;102243.46;1655967;85;21082;-85
2020/12/17 10:51:09;;;;;;;;;;;;;;;;;;;;;
2020/12/17 10:53:37;;;;;;;40.90;23.60;;;;;;;2.51;70.80;102241.28;1641736;85;20919;-85
2020/12/17 10:56:11;;;;;;;37.20;22.75;;;;;;;2.47;70.33;102247.36;1655184;85;20987;-86
2020/12/17 10:58:39;;;;;;;36.83;23.35;;;;;;;2.43;70.18;102246.92;1655199;85;21415;-88
2020/12/17 11:01:11;;;;;;;45.88;25.72;;;;;;;2.34;70.38;102240.45;1642792;86;21664;-86
2020/12/17 11:03:41;;;;;;;44.88;27.82;;;;;;;2.31;70.43;102246.91;1632008;86;20991;-87
2020/12/17 11:06:15;;;;;;;41.45;24.67;;;;;;;2.26;70.67;102241.72;1632096;86;20995;-89
2020/12/17 11:08:43;;;;;;;34.10;20.80;;;;;;;2.24;70.55;102230.06;1620177;87;21490;-88
2020/12/17 11:11:15;;;;;;;26.55;16.73;;;;;;;2.22;70.39;102229.64;1626960;87;20972;-88
2020/12/17 11:13:45;;;;;;;24.47;15.25;;;;;;;2.16;70.35;102224.48;1641552;86;21053;-87
2020/12/17 11:16:13;;;;;;;26.50;17.90;;;;;;;2.13;70.51;102234.81;1627225;87;21059;-86
2020/12/17 11:18:43;;;;;;;34.98;20.02;;;;;;;2.07;70.66;102231.36;1641571;86;21093;-85
2020/12/17 11:21:20;;;;;;;29.82;19.35;;;;;;;2.07;70.73;102222.74;1618857;87;21645;-88
2020/12/17 11:23:51;;;;;;;38.58;20.95;;;;;;;2.06;70.71;102227.03;1627253;87;21011;-85
2020/12/17 11:26:19;;;;;;;25.82;16.23;;;;;;;2.05;70.67;102220.14;1655568;85;21917;-84
2020/12/17 11:28:47;;;;;;;20.08;14.45;;;;;;;2.05;70.73;102223.17;1642829;86;21062;-87
2020/12/17 11:31:15;;;;;;;29.32;19.15;;;;;;;2.01;70.84;102221.44;1631909;86;21046;-86
2020/12/17 11:33:45;;;;;;;49.90;27.07;;;;;;;1.96;71.04;102210.23;1653785;85;21067;-84
2020/12/17 11:36:13;;;;;;;55.58;30.75;;;;;;;1.96;71.12;102211.52;1653603;85;21071;-79
2020/12/17 11:38:41;;;;;;;47.78;27.05;;;;;;;1.94;71.14;102211.51;1653708;84;21297;-88